Corozal, PR (00783)

2:55 AM AST on February 01, 2015 (GMT -0400)
Goodwinds at Dorado Beach Resort | Change Station
CLOSE
Current Station
Personal Weather Station
Location: Dorado, PR
Elevation: 0 ft
Nearby Weather Stations

Elev 0 ft 18.48 °N, 66.30 °W | Updated 4 minutes ago

Scattered Clouds
Scattered Clouds
78.1 °F
Feels Like 81 °F
N
0.0
Wind Variable Wind from West
Gusts 17.0 mph

Today
High -- | Low -- °F
--% Chance of Precip.
Yesterday
High -- | Low -- °F
Precip. -- in
6:58 AM 6:19 PM
Waxing Gibbous, 93% visible
Pressure 30.04 in
Visibility 10.0 miles
Clouds Scattered Clouds 2100 ft
Scattered Clouds 4400 ft
Heat Index 81 °F
Dew Point 72 °F
Humidity 83%
Rainfall 0.00 in
Snow Depth Not available.
UV 0 out of 12
Pollen Not available.
Air Quality Not available.
Flu Activity Not available.
METAR TJSJ 010556Z 11004KT 10SM SCT021 SCT044 24/22 A3004 RMK AO2 RAE01 SLP171 VCSH SW-W P0000 60000 T02440222 10256 20239 58010

More Conditions Fewer Conditions

Pressure 30.04 in
Visibility 10.0 miles
Clouds Scattered Clouds 2100 ft
Scattered Clouds 4400 ft
Heat Index 81 °F
Dew Point 72 °F
Humidity 83%
Rainfall 0.00 in
Snow Depth Not available.
UV 0 out of 12
Pollen Not available.
Air Quality Not available.
Flu Activity Not available.
METAR TJSJ 010556Z 11004KT 10SM SCT021 SCT044 24/22 A3004 RMK AO2 RAE01 SLP171 VCSH SW-W P0000 60000 T02440222 10256 20239 58010

More Conditions Fewer Conditions

10-Day Weather Forecast

Almanac

Astronomy

Feb. 01, 2015 Rise Set
Actual Time
Civil Twilight
Nautical Twilight
Astronomical Twilight
Moon
Length of Visible Light
Length of Day
Tomorrow will be .
, % of the Moon is Illuminated

Today's Extremes

State Highs State Lows

Community

WunderPhotos

Upload Photos

1,792,324 photos uploaded!

WunderBlogs® & News

Nearby

Air Quality

  Air Quality AQ Index Pollutant
Not available.

Snow Depth

Station Depth Elevation

Earthquake Activity

City Distance Mag. Time & Date
Minimum magnitude displayed is 2.5.

Coastal Water Temperatures

Place Temperature

Nearby Weather Stations